sensor_id;sensor_type;location;lat;lon;timestamp;P1;durP1;ratioP1;P2;durP2;ratioP2
37051;SDS011;22964;52.272;13.356;2022-08-01T00:02:12;2.75;;;1.85;;
37051;SDS011;22964;52.272;13.356;2022-08-01T00:04:38;3.72;;;1.90;;
37051;SDS011;22964;52.272;13.356;2022-08-01T00:07:04;2.50;;;1.70;;
37051;SDS011;22964;52.272;13.356;2022-08-01T00:09:30;2.63;;;1.80;;
37051;SDS011;22964;52.272;13.356;2022-08-01T00:11:55;2.78;;;1.80;;
37051;SDS011;22964;52.272;13.356;2022-08-01T00:14:21;4.05;;;1.90;;
37051;SDS011;22964;52.272;13.356;2022-08-01T00:16:47;3.33;;;1.90;;
37051;SDS011;22964;52.272;13.356;2022-08-01T00:19:13;2.90;;;1.75;;
37051;SDS011;22964;52.272;13.356;2022-08-01T00:21:38;3.20;;;1.90;;
37051;SDS011;22964;52.272;13.356;2022-08-01T00:24:04;3.95;;;1.88;;
37051;SDS011;22964;52.272;13.356;2022-08-01T00:26:30;2.20;;;1.80;;
37051;SDS011;22964;52.272;13.356;2022-08-01T00:28:55;3.55;;;2.10;;
37051;SDS011;22964;52.272;13.356;2022-08-01T00:31:21;2.40;;;1.95;;
37051;SDS011;22964;52.272;13.356;2022-08-01T00:33:47;2.50;;;1.95;;
37051;SDS011;22964;52.272;13.356;2022-08-01T00:36:13;3.20;;;1.88;;
37051;SDS011;22964;52.272;13.356;2022-08-01T00:38:38;2.70;;;2.00;;
37051;SDS011;22964;52.272;13.356;2022-08-01T00:41:04;2.88;;;1.83;;
37051;SDS011;22964;52.272;13.356;2022-08-01T00:43:29;3.13;;;1.95;;
37051;SDS011;22964;52.272;13.356;2022-08-01T00:45:55;3.95;;;1.92;;
37051;SDS011;22964;52.272;13.356;2022-08-01T00:48:21;2.38;;;1.73;;
37051;SDS011;22964;52.272;13.356;2022-08-01T00:50:46;2.65;;;2.00;;
37051;SDS011;22964;52.272;13.356;2022-08-01T00:53:12;3.60;;;2.10;;
37051;SDS011;22964;52.272;13.356;2022-08-01T00:55:38;3.35;;;1.95;;
37051;SDS011;22964;52.272;13.356;2022-08-01T00:58:04;2.90;;;1.98;;
37051;SDS011;22964;52.272;13.356;2022-08-01T01:00:30;2.63;;;2.08;;
37051;SDS011;22964;52.272;13.356;2022-08-01T01:02:57;3.63;;;2.00;;
37051;SDS011;22964;52.272;13.356;2022-08-01T01:05:22;3.65;;;2.03;;
37051;SDS011;22964;52.272;13.356;2022-08-01T01:08:04;2.63;;;1.90;;
37051;SDS011;22964;52.272;13.356;2022-08-01T01:10:50;2.90;;;2.00;;
37051;SDS011;22964;52.272;13.356;2022-08-01T01:16:15;2.47;;;1.83;;
37051;SDS011;22964;52.272;13.356;2022-08-01T01:18:44;4.45;;;2.00;;
37051;SDS011;22964;52.272;13.356;2022-08-01T01:23:57;2.97;;;2.17;;
37051;SDS011;22964;52.272;13.356;2022-08-01T01:29:21;3.53;;;1.90;;
37051;SDS011;22964;52.272;13.356;2022-08-01T01:31:55;2.78;;;2.00;;
37051;SDS011;22964;52.272;13.356;2022-08-01T01:34:27;4.50;;;2.10;;
37051;SDS011;22964;52.272;13.356;2022-08-01T01:36:54;6.80;;;1.92;;
37051;SDS011;22964;52.272;13.356;2022-08-01T01:39:21;2.75;;;2.08;;
37051;SDS011;22964;52.272;13.356;2022-08-01T01:41:50;3.03;;;2.20;;
37051;SDS011;22964;52.272;13.356;2022-08-01T01:44:20;2.55;;;1.95;;
37051;SDS011;22964;52.272;13.356;2022-08-01T01:46:46;2.63;;;2.08;;
37051;SDS011;22964;52.272;13.356;2022-08-01T01:49:13;3.38;;;2.10;;
37051;SDS011;22964;52.272;13.356;2022-08-01T01:51:40;3.75;;;2.00;;
37051;SDS011;22964;52.272;13.356;2022-08-01T01:54:08;3.03;;;1.85;;
37051;SDS011;22964;52.272;13.356;2022-08-01T01:56:35;3.22;;;2.40;;
37051;SDS011;22964;52.272;13.356;2022-08-01T01:59:13;3.70;;;1.88;;
37051;SDS011;22964;52.272;13.356;2022-08-01T02:01:47;3.25;;;2.03;;
37051;SDS011;22964;52.272;13.356;2022-08-01T02:04:14;3.17;;;1.98;;
37051;SDS011;22964;52.272;13.356;2022-08-01T02:06:41;3.40;;;2.00;;
37051;SDS011;22964;52.272;13.356;2022-08-01T02:09:08;3.97;;;2.10;;
37051;SDS011;22964;52.272;13.356;2022-08-01T02:11:36;3.63;;;2.00;;
37051;SDS011;22964;52.272;13.356;2022-08-01T02:14:04;3.53;;;2.05;;
37051;SDS011;22964;52.272;13.356;2022-08-01T02:16:36;3.08;;;2.00;;
37051;SDS011;22964;52.272;13.356;2022-08-01T02:19:05;2.78;;;1.92;;
37051;SDS011;22964;52.272;13.356;2022-08-01T02:21:40;2.45;;;1.85;;
37051;SDS011;22964;52.272;13.356;2022-08-01T02:27:07;2.55;;;1.77;;
37051;SDS011;22964;52.272;13.356;2022-08-01T02:30:19;3.00;;;1.98;;
37051;SDS011;22964;52.272;13.356;2022-08-01T02:32:30;2.45;;;2.05;;
37051;SDS011;22964;52.272;13.356;2022-08-01T02:35:01;2.90;;;2.20;;
37051;SDS011;22964;52.272;13.356;2022-08-01T02:37:29;3.17;;;2.00;;
37051;SDS011;22964;52.272;13.356;2022-08-01T02:39:58;2.92;;;1.98;;
37051;SDS011;22964;52.272;13.356;2022-08-01T02:42:26;3.22;;;2.33;;
37051;SDS011;22964;52.272;13.356;2022-08-01T02:44:54;4.38;;;2.10;;
37051;SDS011;22964;52.272;13.356;2022-08-01T02:47:21;3.47;;;2.22;;
37051;SDS011;22964;52.272;13.356;2022-08-01T02:49:48;3.05;;;2.10;;
37051;SDS011;22964;52.272;13.356;2022-08-01T02:52:17;3.40;;;2.15;;
37051;SDS011;22964;52.272;13.356;2022-08-01T02:54:45;3.03;;;2.15;;
37051;SDS011;22964;52.272;13.356;2022-08-01T02:57:13;3.75;;;2.00;;
37051;SDS011;22964;52.272;13.356;2022-08-01T02:59:40;2.88;;;2.00;;
37051;SDS011;22964;52.272;13.356;2022-08-01T03:02:07;2.80;;;2.10;;
37051;SDS011;22964;52.272;13.356;2022-08-01T03:04:35;2.35;;;2.05;;
37051;SDS011;22964;52.272;13.356;2022-08-01T03:07:03;3.20;;;2.33;;
37051;SDS011;22964;52.272;13.356;2022-08-01T03:09:32;3.28;;;2.20;;
37051;SDS011;22964;52.272;13.356;2022-08-01T03:12:02;3.03;;;2.20;;
37051;SDS011;22964;52.272;13.356;2022-08-01T03:14:31;3.25;;;2.20;;
37051;SDS011;22964;52.272;13.356;2022-08-01T03:17:00;3.15;;;2.00;;
37051;SDS011;22964;52.272;13.356;2022-08-01T03:19:26;3.35;;;2.30;;
37051;SDS011;22964;52.272;13.356;2022-08-01T03:21:55;3.53;;;2.00;;
37051;SDS011;22964;52.272;13.356;2022-08-01T03:24:23;3.35;;;2.08;;
37051;SDS011;22964;52.272;13.356;2022-08-01T03:26:50;3.85;;;2.10;;
37051;SDS011;22964;52.272;13.356;2022-08-01T03:29:19;3.65;;;2.22;;
37051;SDS011;22964;52.272;13.356;2022-08-01T03:31:49;2.22;;;1.90;;
37051;SDS011;22964;52.272;13.356;2022-08-01T03:34:16;4.20;;;2.45;;
37051;SDS011;22964;52.272;13.356;2022-08-01T03:36:45;3.22;;;2.40;;
37051;SDS011;22964;52.272;13.356;2022-08-01T03:41:41;4.03;;;2.00;;
37051;SDS011;22964;52.272;13.356;2022-08-01T03:44:15;3.33;;;2.40;;
37051;SDS011;22964;52.272;13.356;2022-08-01T03:46:54;3.03;;;2.38;;
37051;SDS011;22964;52.272;13.356;2022-08-01T03:49:29;4.03;;;2.05;;
37051;SDS011;22964;52.272;13.356;2022-08-01T03:51:58;3.90;;;2.40;;
37051;SDS011;22964;52.272;13.356;2022-08-01T03:54:27;3.88;;;2.17;;
37051;SDS011;22964;52.272;13.356;2022-08-01T03:56:57;4.63;;;2.60;;
37051;SDS011;22964;52.272;13.356;2022-08-01T03:59:24;3.15;;;2.55;;
37051;SDS011;22964;52.272;13.356;2022-08-01T04:01:51;4.00;;;2.35;;
37051;SDS011;22964;52.272;13.356;2022-08-01T04:04:17;3.75;;;2.30;;
37051;SDS011;22964;52.272;13.356;2022-08-01T04:06:43;4.22;;;2.33;;
37051;SDS011;22964;52.272;13.356;2022-08-01T04:09:10;4.05;;;2.00;;
37051;SDS011;22964;52.272;13.356;2022-08-01T04:11:37;3.05;;;2.20;;
37051;SDS011;22964;52.272;13.356;2022-08-01T04:14:03;2.95;;;2.10;;
37051;SDS011;22964;52.272;13.356;2022-08-01T04:16:28;3.17;;;2.05;;
37051;SDS011;22964;52.272;13.356;2022-08-01T04:18:54;3.42;;;2.05;;
37051;SDS011;22964;52.272;13.356;2022-08-01T04:21:22;5.25;;;2.20;;
37051;SDS011;22964;52.272;13.356;2022-08-01T04:23:52;3.25;;;2.05;;
37051;SDS011;22964;52.272;13.356;2022-08-01T04:26:21;2.38;;;1.95;;
37051;SDS011;22964;52.272;13.356;2022-08-01T04:28:48;3.95;;;2.22;;
37051;SDS011;22964;52.272;13.356;2022-08-01T04:31:16;2.75;;;1.85;;
37051;SDS011;22964;52.272;13.356;2022-08-01T04:33:47;2.85;;;2.10;;
37051;SDS011;22964;52.272;13.356;2022-08-01T04:36:16;2.53;;;1.92;;
37051;SDS011;22964;52.272;13.356;2022-08-01T04:38:45;3.03;;;2.00;;
37051;SDS011;22964;52.272;13.356;2022-08-01T04:41:13;4.32;;;2.10;;
37051;SDS011;22964;52.272;13.356;2022-08-01T04:43:41;3.08;;;2.10;;
37051;SDS011;22964;52.272;13.356;2022-08-01T04:46:07;3.10;;;1.90;;
37051;SDS011;22964;52.272;13.356;2022-08-01T04:48:36;2.53;;;1.75;;
37051;SDS011;22964;52.272;13.356;2022-08-01T04:51:04;2.63;;;2.00;;
37051;SDS011;22964;52.272;13.356;2022-08-01T04:53:29;4.10;;;1.90;;
37051;SDS011;22964;52.272;13.356;2022-08-01T04:55:57;3.72;;;1.90;;
37051;SDS011;22964;52.272;13.356;2022-08-01T04:58:23;3.33;;;2.20;;
37051;SDS011;22964;52.272;13.356;2022-08-01T05:00:49;2.50;;;1.80;;
37051;SDS011;22964;52.272;13.356;2022-08-01T05:03:14;3.20;;;1.77;;
37051;SDS011;22964;52.272;13.356;2022-08-01T05:05:40;2.38;;;1.88;;
37051;SDS011;22964;52.272;13.356;2022-08-01T05:08:06;2.67;;;1.75;;
37051;SDS011;22964;52.272;13.356;2022-08-01T05:10:32;2.35;;;1.73;;
37051;SDS011;22964;52.272;13.356;2022-08-01T05:12:57;2.85;;;2.20;;
37051;SDS011;22964;52.272;13.356;2022-08-01T05:15:23;2.20;;;1.80;;
37051;SDS011;22964;52.272;13.356;2022-08-01T05:17:49;2.80;;;1.85;;
37051;SDS011;22964;52.272;13.356;2022-08-01T05:20:15;2.50;;;2.00;;
37051;SDS011;22964;52.272;13.356;2022-08-01T05:22:41;3.10;;;1.90;;
37051;SDS011;22964;52.272;13.356;2022-08-01T05:25:07;2.58;;;1.80;;
37051;SDS011;22964;52.272;13.356;2022-08-01T05:27:33;2.42;;;1.90;;
37051;SDS011;22964;52.272;13.356;2022-08-01T05:30:05;2.88;;;1.90;;
37051;SDS011;22964;52.272;13.356;2022-08-01T05:32:32;2.15;;;1.80;;
37051;SDS011;22964;52.272;13.356;2022-08-01T05:34:58;2.75;;;1.90;;
37051;SDS011;22964;52.272;13.356;2022-08-01T05:37:24;2.85;;;2.00;;
37051;SDS011;22964;52.272;13.356;2022-08-01T05:39:50;2.33;;;1.83;;
37051;SDS011;22964;52.272;13.356;2022-08-01T05:42:16;3.75;;;1.85;;
37051;SDS011;22964;52.272;13.356;2022-08-01T05:44:41;2.75;;;1.75;;
37051;SDS011;22964;52.272;13.356;2022-08-01T05:47:07;4.65;;;2.00;;
37051;SDS011;22964;52.272;13.356;2022-08-01T05:49:33;3.10;;;1.77;;
37051;SDS011;22964;52.272;13.356;2022-08-01T05:51:59;4.20;;;2.03;;
37051;SDS011;22964;52.272;13.356;2022-08-01T05:54:26;2.80;;;1.67;;
37051;SDS011;22964;52.272;13.356;2022-08-01T05:56:53;2.03;;;1.63;;
37051;SDS011;22964;52.272;13.356;2022-08-01T05:59:19;2.28;;;1.70;;
37051;SDS011;22964;52.272;13.356;2022-08-01T06:01:45;2.30;;;1.80;;
37051;SDS011;22964;52.272;13.356;2022-08-01T06:04:11;2.50;;;1.60;;
37051;SDS011;22964;52.272;13.356;2022-08-01T06:06:36;2.10;;;1.40;;
37051;SDS011;22964;52.272;13.356;2022-08-01T06:09:02;3.10;;;1.60;;
37051;SDS011;22964;52.272;13.356;2022-08-01T06:11:28;3.10;;;1.75;;
37051;SDS011;22964;52.272;13.356;2022-08-01T06:13:54;2.45;;;1.70;;
37051;SDS011;22964;52.272;13.356;2022-08-01T06:16:19;3.13;;;1.50;;
37051;SDS011;22964;52.272;13.356;2022-08-01T06:18:45;1.80;;;1.40;;
37051;SDS011;22964;52.272;13.356;2022-08-01T06:21:11;2.30;;;1.40;;
37051;SDS011;22964;52.272;13.356;2022-08-01T06:23:37;1.60;;;1.40;;
37051;SDS011;22964;52.272;13.356;2022-08-01T06:26:02;2.13;;;1.70;;
37051;SDS011;22964;52.272;13.356;2022-08-01T06:28:28;3.08;;;1.73;;
37051;SDS011;22964;52.272;13.356;2022-08-01T06:30:54;2.50;;;1.42;;
37051;SDS011;22964;52.272;13.356;2022-08-01T06:33:20;1.70;;;1.40;;
37051;SDS011;22964;52.272;13.356;2022-08-01T06:35:46;2.63;;;1.80;;
37051;SDS011;22964;52.272;13.356;2022-08-01T06:38:12;2.38;;;1.60;;
37051;SDS011;22964;52.272;13.356;2022-08-01T06:40:37;1.60;;;1.40;;
37051;SDS011;22964;52.272;13.356;2022-08-01T06:43:03;4.60;;;1.50;;
37051;SDS011;22964;52.272;13.356;2022-08-01T06:45:29;2.15;;;1.45;;
37051;SDS011;22964;52.272;13.356;2022-08-01T06:47:55;2.38;;;1.38;;
37051;SDS011;22964;52.272;13.356;2022-08-01T06:50:20;3.38;;;1.55;;
37051;SDS011;22964;52.272;13.356;2022-08-01T06:52:46;1.60;;;1.35;;
37051;SDS011;22964;52.272;13.356;2022-08-01T06:55:12;1.90;;;1.40;;
37051;SDS011;22964;52.272;13.356;2022-08-01T06:57:45;2.47;;;1.10;;
37051;SDS011;22964;52.272;13.356;2022-08-01T07:00:15;1.70;;;1.20;;
37051;SDS011;22964;52.272;13.356;2022-08-01T07:02:43;1.23;;;1.08;;
37051;SDS011;22964;52.272;13.356;2022-08-01T07:05:10;1.67;;;1.13;;
37051;SDS011;22964;52.272;13.356;2022-08-01T07:07:36;1.35;;;1.20;;
37051;SDS011;22964;52.272;13.356;2022-08-01T07:10:02;1.60;;;1.10;;
37051;SDS011;22964;52.272;13.356;2022-08-01T07:12:28;2.45;;;1.30;;
37051;SDS011;22964;52.272;13.356;2022-08-01T07:14:54;1.85;;;1.27;;
37051;SDS011;22964;52.272;13.356;2022-08-01T07:17:19;1.58;;;1.20;;
37051;SDS011;22964;52.272;13.356;2022-08-01T07:19:46;2.20;;;1.20;;
37051;SDS011;22964;52.272;13.356;2022-08-01T07:22:12;2.10;;;1.05;;
37051;SDS011;22964;52.272;13.356;2022-08-01T07:24:39;1.90;;;1.13;;
37051;SDS011;22964;52.272;13.356;2022-08-01T07:27:06;1.90;;;1.20;;
37051;SDS011;22964;52.272;13.356;2022-08-01T07:29:32;2.38;;;1.20;;
37051;SDS011;22964;52.272;13.356;2022-08-01T07:31:58;1.70;;;1.20;;
37051;SDS011;22964;52.272;13.356;2022-08-01T07:34:24;1.52;;;1.17;;
37051;SDS011;22964;52.272;13.356;2022-08-01T07:36:50;2.28;;;1.30;;
37051;SDS011;22964;52.272;13.356;2022-08-01T07:39:16;1.85;;;1.23;;
37051;SDS011;22964;52.272;13.356;2022-08-01T07:41:42;3.38;;;1.20;;
37051;SDS011;22964;52.272;13.356;2022-08-01T07:44:08;1.30;;;1.20;;
37051;SDS011;22964;52.272;13.356;2022-08-01T07:46:33;1.10;;;1.00;;
37051;SDS011;22964;52.272;13.356;2022-08-01T07:48:59;1.95;;;1.30;;
37051;SDS011;22964;52.272;13.356;2022-08-01T07:51:25;1.40;;;1.20;;
37051;SDS011;22964;52.272;13.356;2022-08-01T07:53:51;1.65;;;1.30;;
37051;SDS011;22964;52.272;13.356;2022-08-01T07:56:16;1.65;;;1.30;;
37051;SDS011;22964;52.272;13.356;2022-08-01T07:58:42;2.00;;;1.27;;
37051;SDS011;22964;52.272;13.356;2022-08-01T08:01:08;1.33;;;1.20;;
37051;SDS011;22964;52.272;13.356;2022-08-01T08:03:33;2.63;;;1.23;;
37051;SDS011;22964;52.272;13.356;2022-08-01T08:05:59;2.00;;;1.30;;
37051;SDS011;22964;52.272;13.356;2022-08-01T08:08:25;1.80;;;1.40;;
37051;SDS011;22964;52.272;13.356;2022-08-01T08:10:50;2.17;;;1.40;;
37051;SDS011;22964;52.272;13.356;2022-08-01T08:13:16;2.92;;;1.58;;
37051;SDS011;22964;52.272;13.356;2022-08-01T08:15:42;2.67;;;1.70;;
37051;SDS011;22964;52.272;13.356;2022-08-01T08:18:08;1.88;;;1.60;;
37051;SDS011;22964;52.272;13.356;2022-08-01T08:20:34;2.50;;;1.95;;
37051;SDS011;22964;52.272;13.356;2022-08-01T08:22:59;2.78;;;1.85;;
37051;SDS011;22964;52.272;13.356;2022-08-01T08:25:25;3.05;;;2.17;;
37051;SDS011;22964;52.272;13.356;2022-08-01T08:27:52;2.80;;;2.20;;
37051;SDS011;22964;52.272;13.356;2022-08-01T08:30:18;3.10;;;2.20;;
37051;SDS011;22964;52.272;13.356;2022-08-01T08:32:44;3.00;;;2.10;;
37051;SDS011;22964;52.272;13.356;2022-08-01T08:35:10;3.38;;;1.90;;
37051;SDS011;22964;52.272;13.356;2022-08-01T08:37:36;2.65;;;2.03;;
37051;SDS011;22964;52.272;13.356;2022-08-01T08:40:03;3.28;;;2.22;;
37051;SDS011;22964;52.272;13.356;2022-08-01T08:42:30;2.85;;;2.33;;
37051;SDS011;22964;52.272;13.356;2022-08-01T08:44:55;2.60;;;2.20;;
37051;SDS011;22964;52.272;13.356;2022-08-01T08:47:22;3.28;;;2.30;;
37051;SDS011;22964;52.272;13.356;2022-08-01T08:49:50;2.83;;;2.22;;
37051;SDS011;22964;52.272;13.356;2022-08-01T08:52:17;2.33;;;2.05;;
37051;SDS011;22964;52.272;13.356;2022-08-01T08:54:44;2.50;;;2.10;;
37051;SDS011;22964;52.272;13.356;2022-08-01T08:57:12;2.97;;;2.05;;
37051;SDS011;22964;52.272;13.356;2022-08-01T08:59:39;2.50;;;2.10;;
37051;SDS011;22964;52.272;13.356;2022-08-01T09:02:05;4.75;;;2.08;;
37051;SDS011;22964;52.272;13.356;2022-08-01T09:04:32;2.35;;;1.90;;
37051;SDS011;22964;52.272;13.356;2022-08-01T09:06:58;2.85;;;2.00;;
37051;SDS011;22964;52.272;13.356;2022-08-01T09:09:23;3.10;;;2.03;;
37051;SDS011;22964;52.272;13.356;2022-08-01T09:11:49;2.70;;;2.00;;
37051;SDS011;22964;52.272;13.356;2022-08-01T09:14:16;2.42;;;1.85;;
37051;SDS011;22964;52.272;13.356;2022-08-01T09:16:58;2.15;;;1.70;;
37051;SDS011;22964;52.272;13.356;2022-08-01T09:19:42;2.88;;;2.13;;
37051;SDS011;22964;52.272;13.356;2022-08-01T09:22:16;2.67;;;1.83;;
37051;SDS011;22964;52.272;13.356;2022-08-01T09:24:57;2.40;;;1.85;;
37051;SDS011;22964;52.272;13.356;2022-08-01T09:27:30;1.88;;;1.65;;
37051;SDS011;22964;52.272;13.356;2022-08-01T09:30:06;2.22;;;1.80;;
37051;SDS011;22964;52.272;13.356;2022-08-01T09:32:32;2.42;;;1.95;;
37051;SDS011;22964;52.272;13.356;2022-08-01T09:35:00;3.28;;;1.55;;
37051;SDS011;22964;52.272;13.356;2022-08-01T09:37:48;2.13;;;1.48;;
37051;SDS011;22964;52.272;13.356;2022-08-01T09:40:13;2.15;;;1.40;;
37051;SDS011;22964;52.272;13.356;2022-08-01T09:42:39;1.60;;;1.40;;
37051;SDS011;22964;52.272;13.356;2022-08-01T09:45:05;2.05;;;1.50;;
37051;SDS011;22964;52.272;13.356;2022-08-01T09:47:37;1.90;;;1.30;;
37051;SDS011;22964;52.272;13.356;2022-08-01T09:50:04;1.73;;;1.40;;
37051;SDS011;22964;52.272;13.356;2022-08-01T09:52:32;1.70;;;1.30;;
37051;SDS011;22964;52.272;13.356;2022-08-01T09:54:58;1.40;;;1.13;;
37051;SDS011;22964;52.272;13.356;2022-08-01T09:57:26;2.08;;;1.17;;
37051;SDS011;22964;52.272;13.356;2022-08-01T09:59:53;1.23;;;1.13;;
37051;SDS011;22964;52.272;13.356;2022-08-01T10:04:57;1.42;;;1.20;;
37051;SDS011;22964;52.272;13.356;2022-08-01T10:07:23;1.20;;;1.05;;
37051;SDS011;22964;52.272;13.356;2022-08-01T10:09:49;1.67;;;1.27;;
37051;SDS011;22964;52.272;13.356;2022-08-01T10:12:18;2.90;;;1.48;;
37051;SDS011;22964;52.272;13.356;2022-08-01T10:14:46;1.60;;;1.15;;
37051;SDS011;22964;52.272;13.356;2022-08-01T10:17:20;1.60;;;1.48;;
37051;SDS011;22964;52.272;13.356;2022-08-01T10:19:50;2.15;;;1.30;;
37051;SDS011;22964;52.272;13.356;2022-08-01T10:22:19;2.40;;;1.40;;
37051;SDS011;22964;52.272;13.356;2022-08-01T10:24:50;2.05;;;1.38;;
37051;SDS011;22964;52.272;13.356;2022-08-01T10:27:19;2.40;;;1.30;;
37051;SDS011;22964;52.272;13.356;2022-08-01T10:29:47;1.80;;;1.20;;
37051;SDS011;22964;52.272;13.356;2022-08-01T10:32:19;2.70;;;1.40;;
37051;SDS011;22964;52.272;13.356;2022-08-01T10:34:46;1.58;;;1.25;;
37051;SDS011;22964;52.272;13.356;2022-08-01T10:37:13;1.80;;;1.15;;
37051;SDS011;22964;52.272;13.356;2022-08-01T10:39:40;2.22;;;1.15;;
37051;SDS011;22964;52.272;13.356;2022-08-01T10:42:06;1.20;;;1.10;;
37051;SDS011;22964;52.272;13.356;2022-08-01T10:44:36;1.17;;;1.00;;
37051;SDS011;22964;52.272;13.356;2022-08-01T10:47:12;1.25;;;1.10;;
37051;SDS011;22964;52.272;13.356;2022-08-01T10:49:47;4.68;;;1.05;;
37051;SDS011;22964;52.272;13.356;2022-08-01T10:52:17;1.30;;;0.93;;
37051;SDS011;22964;52.272;13.356;2022-08-01T10:54:43;4.65;;;1.00;;
37051;SDS011;22964;52.272;13.356;2022-08-01T10:57:10;1.60;;;1.10;;
37051;SDS011;22964;52.272;13.356;2022-08-01T10:59:47;1.25;;;1.00;;
37051;SDS011;22964;52.272;13.356;2022-08-01T11:02:26;1.90;;;0.90;;
37051;SDS011;22964;52.272;13.356;2022-08-01T11:05:03;1.52;;;0.90;;
37051;SDS011;22964;52.272;13.356;2022-08-01T11:07:53;0.98;;;0.80;;
37051;SDS011;22964;52.272;13.356;2022-08-01T11:10:36;1.38;;;0.90;;
37051;SDS011;22964;52.272;13.356;2022-08-01T11:13:03;1.88;;;0.90;;
37051;SDS011;22964;52.272;13.356;2022-08-01T11:15:33;3.05;;;0.90;;
37051;SDS011;22964;52.272;13.356;2022-08-01T11:18:00;1.92;;;0.95;;
37051;SDS011;22964;52.272;13.356;2022-08-01T11:20:32;1.55;;;1.00;;
37051;SDS011;22964;52.272;13.356;2022-08-01T11:30:46;1.48;;;0.88;;
37051;SDS011;22964;52.272;13.356;2022-08-01T11:33:13;2.75;;;0.93;;
37051;SDS011;22964;52.272;13.356;2022-08-01T11:36:23;0.93;;;0.85;;
37051;SDS011;22964;52.272;13.356;2022-08-01T11:38:35;2.45;;;0.98;;
37051;SDS011;22964;52.272;13.356;2022-08-01T11:41:25;2.35;;;0.77;;
37051;SDS011;22964;52.272;13.356;2022-08-01T11:44:02;2.58;;;0.90;;
37051;SDS011;22964;52.272;13.356;2022-08-01T11:52:05;2.05;;;0.80;;
37051;SDS011;22964;52.272;13.356;2022-08-01T11:54:34;0.80;;;0.77;;
37051;SDS011;22964;52.272;13.356;2022-08-01T11:57:05;3.00;;;1.08;;
37051;SDS011;22964;52.272;13.356;2022-08-01T11:59:52;1.60;;;1.00;;
37051;SDS011;22964;52.272;13.356;2022-08-01T12:04:46;1.00;;;0.90;;
37051;SDS011;22964;52.272;13.356;2022-08-01T12:07:20;1.05;;;0.93;;
37051;SDS011;22964;52.272;13.356;2022-08-01T12:09:47;1.52;;;0.98;;
37051;SDS011;22964;52.272;13.356;2022-08-01T12:12:14;1.50;;;0.93;;
37051;SDS011;22964;52.272;13.356;2022-08-01T12:14:42;1.60;;;1.00;;
37051;SDS011;22964;52.272;13.356;2022-08-01T12:17:08;1.25;;;0.90;;
37051;SDS011;22964;52.272;13.356;2022-08-01T12:19:34;1.13;;;0.90;;
37051;SDS011;22964;52.272;13.356;2022-08-01T12:22:21;1.63;;;0.95;;
37051;SDS011;22964;52.272;13.356;2022-08-01T12:24:48;1.30;;;1.00;;
37051;SDS011;22964;52.272;13.356;2022-08-01T12:27:23;2.58;;;0.90;;
37051;SDS011;22964;52.272;13.356;2022-08-01T12:29:50;3.03;;;1.00;;
37051;SDS011;22964;52.272;13.356;2022-08-01T12:32:32;1.05;;;0.90;;
37051;SDS011;22964;52.272;13.356;2022-08-01T12:35:05;1.83;;;1.00;;
37051;SDS011;22964;52.272;13.356;2022-08-01T12:37:36;1.67;;;1.00;;
37051;SDS011;22964;52.272;13.356;2022-08-01T12:40:08;1.15;;;0.80;;
37051;SDS011;22964;52.272;13.356;2022-08-01T12:42:44;1.23;;;1.00;;
37051;SDS011;22964;52.272;13.356;2022-08-01T12:45:58;1.30;;;0.90;;
37051;SDS011;22964;52.272;13.356;2022-08-01T12:47:57;1.38;;;1.05;;
37051;SDS011;22964;52.272;13.356;2022-08-01T12:50:25;1.30;;;1.00;;
37051;SDS011;22964;52.272;13.356;2022-08-01T12:52:54;1.10;;;1.00;;
37051;SDS011;22964;52.272;13.356;2022-08-01T12:55:21;2.05;;;0.90;;
37051;SDS011;22964;52.272;13.356;2022-08-01T12:57:50;1.20;;;0.90;;
37051;SDS011;22964;52.272;13.356;2022-08-01T13:00:29;2.00;;;1.00;;
37051;SDS011;22964;52.272;13.356;2022-08-01T13:03:08;1.20;;;0.90;;
37051;SDS011;22964;52.272;13.356;2022-08-01T13:08:11;2.25;;;1.20;;
37051;SDS011;22964;52.272;13.356;2022-08-01T13:10:41;0.90;;;0.70;;
37051;SDS011;22964;52.272;13.356;2022-08-01T13:13:08;1.05;;;0.80;;
37051;SDS011;22964;52.272;13.356;2022-08-01T13:15:35;1.23;;;0.70;;
37051;SDS011;22964;52.272;13.356;2022-08-01T13:20:47;1.08;;;0.80;;
37051;SDS011;22964;52.272;13.356;2022-08-01T13:23:17;0.80;;;0.70;;
37051;SDS011;22964;52.272;13.356;2022-08-01T13:28:18;0.80;;;0.75;;
37051;SDS011;22964;52.272;13.356;2022-08-01T13:30:58;2.25;;;0.80;;
37051;SDS011;22964;52.272;13.356;2022-08-01T13:33:26;1.13;;;0.80;;
37051;SDS011;22964;52.272;13.356;2022-08-01T13:36:05;0.70;;;0.70;;
37051;SDS011;22964;52.272;13.356;2022-08-01T13:38:31;0.88;;;0.70;;
37051;SDS011;22964;52.272;13.356;2022-08-01T13:41:16;1.23;;;0.77;;
37051;SDS011;22964;52.272;13.356;2022-08-01T13:43:42;1.17;;;0.80;;
37051;SDS011;22964;52.272;13.356;2022-08-01T13:46:07;0.63;;;0.60;;
37051;SDS011;22964;52.272;13.356;2022-08-01T13:48:33;3.10;;;1.10;;
37051;SDS011;22964;52.272;13.356;2022-08-01T13:50:59;1.17;;;0.80;;
37051;SDS011;22964;52.272;13.356;2022-08-01T13:53:26;0.70;;;0.60;;
37051;SDS011;22964;52.272;13.356;2022-08-01T13:55:52;0.65;;;0.65;;
37051;SDS011;22964;52.272;13.356;2022-08-01T13:58:18;0.98;;;0.80;;
37051;SDS011;22964;52.272;13.356;2022-08-01T14:00:44;0.77;;;0.70;;
37051;SDS011;22964;52.272;13.356;2022-08-01T14:03:12;1.70;;;0.70;;
37051;SDS011;22964;52.272;13.356;2022-08-01T14:05:38;1.67;;;0.80;;
37051;SDS011;22964;52.272;13.356;2022-08-01T14:08:04;1.10;;;0.73;;
37051;SDS011;22964;52.272;13.356;2022-08-01T14:10:30;0.73;;;0.60;;
37051;SDS011;22964;52.272;13.356;2022-08-01T14:12:56;0.68;;;0.68;;
37051;SDS011;22964;52.272;13.356;2022-08-01T14:15:23;0.68;;;0.52;;
37051;SDS011;22964;52.272;13.356;2022-08-01T14:17:49;0.75;;;0.70;;
37051;SDS011;22964;52.272;13.356;2022-08-01T14:20:15;1.00;;;0.60;;
37051;SDS011;22964;52.272;13.356;2022-08-01T14:22:44;1.65;;;0.85;;
37051;SDS011;22964;52.272;13.356;2022-08-01T14:25:11;0.50;;;0.50;;
37051;SDS011;22964;52.272;13.356;2022-08-01T14:27:37;0.60;;;0.50;;
37051;SDS011;22964;52.272;13.356;2022-08-01T14:30:05;0.93;;;0.50;;
37051;SDS011;22964;52.272;13.356;2022-08-01T14:32:31;1.60;;;0.88;;
37051;SDS011;22964;52.272;13.356;2022-08-01T14:34:58;0.80;;;0.60;;
37051;SDS011;22964;52.272;13.356;2022-08-01T14:37:24;0.50;;;0.50;;
37051;SDS011;22964;52.272;13.356;2022-08-01T14:39:50;0.60;;;0.57;;
37051;SDS011;22964;52.272;13.356;2022-08-01T14:42:16;1.80;;;0.75;;
37051;SDS011;22964;52.272;13.356;2022-08-01T14:44:42;0.75;;;0.60;;
37051;SDS011;22964;52.272;13.356;2022-08-01T14:47:07;0.40;;;0.40;;
37051;SDS011;22964;52.272;13.356;2022-08-01T14:49:33;0.80;;;0.60;;
37051;SDS011;22964;52.272;13.356;2022-08-01T14:51:59;0.57;;;0.57;;
37051;SDS011;22964;52.272;13.356;2022-08-01T14:54:24;0.75;;;0.70;;
37051;SDS011;22964;52.272;13.356;2022-08-01T14:56:50;0.77;;;0.60;;
37051;SDS011;22964;52.272;13.356;2022-08-01T14:59:17;0.90;;;0.68;;
37051;SDS011;22964;52.272;13.356;2022-08-01T15:01:44;0.52;;;0.50;;
37051;SDS011;22964;52.272;13.356;2022-08-01T15:04:09;0.55;;;0.55;;
37051;SDS011;22964;52.272;13.356;2022-08-01T15:06:35;0.93;;;0.73;;
37051;SDS011;22964;52.272;13.356;2022-08-01T15:09:01;0.60;;;0.60;;
37051;SDS011;22964;52.272;13.356;2022-08-01T15:11:27;1.65;;;0.50;;
37051;SDS011;22964;52.272;13.356;2022-08-01T15:13:53;1.20;;;0.82;;
37051;SDS011;22964;52.272;13.356;2022-08-01T15:16:37;1.13;;;0.70;;
37051;SDS011;22964;52.272;13.356;2022-08-01T15:19:03;1.08;;;0.80;;
37051;SDS011;22964;52.272;13.356;2022-08-01T15:21:28;1.23;;;0.70;;